Terminal Aerodrome Forecast
Issued by NWS

Home | Current Version | Previous Version | Text Only | Print | Product List | Glossary On
Versions: 1 2 3 4 5 6 7 8 9 10 11 12 13 14 15 16 17 18 19 20 21 22 23 24 25 26 27 28 29 30 31 32 33 34 35 36 37 38 39 40 41 42 43 44 45 46 47
000
FTUS45 KBOU 312337
TAFBJC
TAF
KBJC 312337Z 0100/0124 06007KT P6SM FEW080 BKN120 BKN200
     FM010200 VRB05KT P6SM FEW080 SCT120 BKN200
     FM010600 25006KT P6SM SCT100 SCT200
     FM010900 29008KT P6SM FEW110 SCT200
     FM011500 VRB06KT P6SM FEW090 SCT150
     FM012100 08007KT P6SM VCTS SCT080CB BKN120=

USA.gov is the U.S. government's official web portal to all federal, state and local government web resources and services.